createdAt,value
2018-04-19T00:00:19.659Z,9.43
2018-04-19T00:02:45.405Z,10.13
2018-04-19T00:05:11.171Z,9.00
2018-04-19T00:07:36.923Z,8.50
2018-04-19T00:10:02.669Z,9.20
2018-04-19T00:12:28.432Z,10.97
2018-04-19T00:14:54.198Z,11.73
2018-04-19T00:17:19.936Z,10.70
2018-04-19T00:19:45.680Z,10.47
2018-04-19T00:22:11.460Z,10.57
2018-04-19T00:24:37.188Z,8.80
2018-04-19T00:27:02.935Z,8.90
2018-04-19T00:29:28.711Z,10.80
2018-04-19T00:31:54.449Z,9.80
2018-04-19T00:34:20.208Z,9.03
2018-04-19T00:36:45.952Z,8.73
2018-04-19T00:39:11.713Z,9.60
2018-04-19T00:41:37.465Z,11.60
2018-04-19T00:44:03.230Z,10.60
2018-04-19T00:46:28.976Z,11.43
2018-04-19T00:48:54.741Z,10.10
2018-04-19T00:51:20.482Z,9.00
2018-04-19T00:53:46.249Z,9.77
2018-04-19T00:56:12.000Z,12.80
2018-04-19T00:58:37.744Z,11.07
2018-04-19T01:01:03.490Z,10.90
2018-04-19T01:03:29.245Z,12.67
2018-04-19T01:05:54.984Z,10.63
2018-04-19T01:08:20.716Z,10.87
2018-04-19T01:10:46.456Z,16.00
2018-04-19T01:13:12.226Z,14.40
2018-04-19T01:15:37.984Z,13.03
2018-04-19T01:18:03.732Z,12.63
2018-04-19T01:20:29.501Z,14.17
2018-04-19T01:22:55.237Z,13.07
2018-04-19T01:25:20.988Z,14.53
2018-04-19T01:27:46.727Z,15.30
2018-04-19T01:30:12.471Z,15.57
2018-04-19T01:32:38.208Z,16.83
2018-04-19T01:35:03.954Z,15.20
2018-04-19T01:37:29.693Z,16.03
2018-04-19T01:39:55.460Z,16.57
2018-04-19T01:42:21.197Z,13.63
2018-04-19T01:44:46.960Z,14.23
2018-04-19T01:47:12.706Z,14.17
2018-04-19T01:49:38.456Z,15.47
2018-04-19T01:52:04.218Z,17.07
2018-04-19T01:54:29.944Z,16.40
2018-04-19T01:56:55.685Z,14.80
2018-04-19T01:59:21.409Z,16.47
2018-04-19T02:01:47.160Z,18.43
2018-04-19T02:04:12.900Z,16.03
2018-04-19T02:06:38.653Z,16.37
2018-04-19T02:09:04.400Z,15.83
2018-04-19T02:11:30.152Z,15.63
2018-04-19T02:13:55.901Z,18.87
2018-04-19T02:16:21.648Z,20.27
2018-04-19T02:18:47.381Z,20.90
2018-04-19T02:21:13.116Z,16.47
2018-04-19T02:23:38.849Z,16.90
2018-04-19T02:26:04.599Z,17.87
2018-04-19T02:28:30.345Z,19.70
2018-04-19T02:30:56.080Z,19.80
2018-04-19T02:33:21.817Z,17.53
2018-04-19T02:35:47.602Z,17.20
2018-04-19T02:38:13.334Z,20.80
2018-04-19T02:40:39.069Z,22.57
2018-04-19T02:43:04.811Z,25.00
2018-04-19T02:45:30.556Z,19.27
2018-04-19T02:47:56.296Z,17.80
2018-04-19T02:50:22.048Z,19.50
2018-04-19T02:52:47.791Z,20.17
2018-04-19T02:55:13.526Z,21.33
2018-04-19T02:57:39.275Z,23.30
2018-04-19T03:00:05.024Z,22.43
2018-04-19T03:02:30.768Z,19.20
2018-04-19T03:04:56.511Z,21.77
2018-04-19T03:07:22.271Z,21.37
2018-04-19T03:09:48.020Z,22.67
2018-04-19T03:12:13.768Z,18.63
2018-04-19T03:14:39.511Z,17.40
2018-04-19T03:17:05.258Z,19.83
2018-04-19T03:19:31.025Z,24.77
2018-04-19T03:21:56.768Z,21.63
2018-04-19T03:24:22.531Z,25.77
2018-04-19T03:26:48.279Z,22.13
2018-04-19T03:29:14.032Z,25.23
2018-04-19T03:31:39.775Z,24.50
2018-04-19T03:34:05.525Z,16.73
2018-04-19T03:36:31.259Z,18.53
2018-04-19T03:38:56.997Z,21.80
2018-04-19T03:41:22.744Z,23.60
2018-04-19T03:43:48.492Z,25.93
2018-04-19T03:46:14.233Z,20.10
2018-04-19T03:48:39.993Z,18.67
2018-04-19T03:51:05.740Z,18.63
2018-04-19T03:53:31.485Z,18.63
2018-04-19T03:55:57.220Z,18.67
2018-04-19T03:58:22.980Z,17.93
2018-04-19T04:00:48.724Z,19.03
2018-04-19T04:03:14.466Z,19.03
2018-04-19T04:05:40.217Z,18.80
2018-04-19T04:08:05.949Z,25.17
2018-04-19T04:10:31.689Z,24.67
2018-04-19T04:12:57.428Z,21.33
2018-04-19T04:15:23.185Z,19.63
2018-04-19T04:18:01.456Z,18.93
2018-04-19T04:20:39.460Z,19.67
2018-04-19T04:23:21.580Z,20.70
2018-04-19T04:25:47.333Z,22.77
2018-04-19T04:28:13.072Z,18.57
2018-04-19T04:30:39.608Z,19.73
2018-04-19T04:33:05.348Z,18.50
2018-04-19T04:35:31.109Z,20.37
2018-04-19T04:37:56.856Z,20.90
2018-04-19T04:40:22.616Z,23.07
2018-04-19T04:42:48.353Z,20.27
2018-04-19T04:45:14.091Z,18.63
2018-04-19T04:47:39.843Z,19.63
2018-04-19T04:50:05.602Z,20.53
2018-04-19T04:52:31.340Z,22.17
2018-04-19T04:54:57.080Z,20.13
2018-04-19T04:57:22.819Z,18.83
2018-04-19T04:59:48.579Z,19.40
2018-04-19T05:02:14.325Z,19.47
2018-04-19T05:04:40.063Z,19.37
2018-04-19T05:07:05.824Z,21.67
2018-04-19T05:09:31.571Z,20.87
2018-04-19T05:11:57.325Z,20.50
2018-04-19T05:14:23.158Z,18.17
2018-04-19T05:16:48.826Z,17.60
2018-04-19T05:19:14.552Z,21.33
2018-04-19T05:21:40.300Z,19.50
2018-04-19T05:24:06.031Z,18.27
2018-04-19T05:26:31.776Z,19.87
2018-04-19T05:28:57.522Z,19.07
2018-04-19T05:31:23.272Z,20.30
2018-04-19T05:33:49.008Z,19.57
2018-04-19T05:36:14.744Z,18.73
2018-04-19T05:38:40.502Z,18.77
2018-04-19T05:41:06.240Z,20.87
2018-04-19T05:43:31.964Z,19.60
2018-04-19T05:45:57.708Z,18.67
2018-04-19T05:48:23.454Z,20.23
2018-04-19T05:50:49.221Z,18.07
2018-04-19T05:53:14.960Z,18.00
2018-04-19T05:55:40.691Z,18.17
2018-04-19T05:58:13.497Z,17.97
2018-04-19T06:00:39.244Z,16.70
2018-04-19T06:03:05.039Z,18.27
2018-04-19T06:05:30.712Z,17.37
2018-04-19T06:07:56.474Z,15.93
2018-04-19T06:10:22.210Z,16.77
2018-04-19T06:12:47.966Z,15.90
2018-04-19T06:15:13.715Z,16.27
2018-04-19T06:17:39.463Z,16.03
2018-04-19T06:20:05.210Z,16.03
2018-04-19T06:22:30.969Z,16.40
2018-04-19T06:24:56.761Z,15.90
2018-04-19T06:27:22.456Z,15.47
2018-04-19T06:29:48.188Z,15.07
2018-04-19T06:32:13.940Z,14.50
2018-04-19T06:34:39.691Z,15.77
2018-04-19T06:37:05.428Z,14.27
2018-04-19T06:39:31.173Z,13.67
2018-04-19T06:41:56.921Z,12.93
2018-04-19T06:44:22.682Z,12.27
2018-04-19T06:46:48.421Z,12.60
2018-04-19T06:49:14.156Z,12.30
2018-04-19T06:51:39.892Z,12.27
2018-04-19T06:54:05.636Z,11.50
2018-04-19T06:56:31.364Z,10.80
2018-04-19T06:58:57.098Z,11.03
2018-04-19T07:01:22.832Z,11.97
2018-04-19T07:03:48.576Z,11.17
2018-04-19T07:06:14.303Z,9.83
2018-04-19T07:08:40.062Z,10.00
2018-04-19T07:11:05.804Z,10.37
2018-04-19T07:13:31.546Z,9.90
2018-04-19T07:15:57.284Z,9.67
2018-04-19T07:18:23.024Z,9.77
2018-04-19T07:20:48.760Z,8.63
2018-04-19T07:23:14.507Z,8.50
2018-04-19T07:25:40.236Z,8.40
2018-04-19T07:28:13.004Z,7.53
2018-04-19T07:30:38.755Z,8.37
2018-04-19T07:33:04.488Z,7.93
2018-04-19T07:35:30.233Z,8.47
2018-04-19T07:37:55.965Z,7.80
2018-04-19T07:40:21.720Z,7.80
2018-04-19T07:42:47.446Z,7.73
2018-04-19T07:45:13.206Z,8.27
2018-04-19T07:47:38.940Z,8.87
2018-04-19T07:50:04.712Z,7.90
2018-04-19T07:52:30.462Z,8.07
2018-04-19T07:54:56.210Z,8.10
2018-04-19T07:57:21.951Z,7.90
2018-04-19T07:59:47.704Z,8.37
2018-04-19T08:02:13.448Z,9.10
2018-04-19T08:04:39.200Z,8.20
2018-04-19T08:07:04.929Z,8.87
2018-04-19T08:09:30.707Z,9.00
2018-04-19T08:11:56.449Z,8.80
2018-04-19T08:14:22.180Z,9.30
2018-04-19T08:16:47.937Z,8.90
2018-04-19T08:19:13.673Z,8.73
2018-04-19T08:21:39.419Z,8.67
2018-04-19T08:24:05.154Z,9.70
2018-04-19T08:26:30.916Z,9.33
2018-04-19T08:28:56.647Z,9.10
2018-04-19T08:31:22.417Z,10.37
2018-04-19T08:33:48.146Z,8.97
2018-04-19T08:36:13.908Z,9.90
2018-04-19T08:38:39.665Z,10.43
2018-04-19T08:41:05.415Z,10.70
2018-04-19T08:43:31.144Z,10.70
2018-04-19T08:45:56.892Z,11.20
2018-04-19T08:48:22.637Z,10.17
2018-04-19T08:50:48.388Z,10.50
2018-04-19T08:53:14.134Z,10.60
2018-04-19T08:55:39.868Z,9.77
2018-04-19T08:58:05.604Z,9.00
2018-04-19T09:00:31.324Z,9.93
2018-04-19T09:02:57.106Z,10.13
2018-04-19T09:05:22.837Z,10.40
2018-04-19T09:07:48.581Z,9.70
2018-04-19T09:10:14.330Z,9.87
2018-04-19T09:12:40.089Z,10.60
2018-04-19T09:15:05.824Z,10.93
2018-04-19T09:17:31.584Z,11.13
2018-04-19T09:19:57.328Z,10.70
2018-04-19T09:22:23.148Z,10.53
2018-04-19T09:24:48.836Z,12.00
2018-04-19T09:27:14.568Z,11.93
2018-04-19T09:29:40.319Z,11.67
2018-04-19T09:32:06.061Z,11.60
2018-04-19T09:34:31.827Z,11.30
2018-04-19T09:36:57.568Z,10.63
2018-04-19T09:39:23.306Z,13.43
2018-04-19T09:41:49.057Z,11.23
2018-04-19T09:44:14.814Z,12.23
2018-04-19T09:46:40.608Z,12.40
2018-04-19T09:49:06.320Z,13.50
2018-04-19T09:51:32.071Z,12.63
2018-04-19T09:53:57.863Z,11.73
2018-04-19T09:56:23.572Z,12.27
2018-04-19T09:59:01.735Z,11.50
2018-04-19T10:01:27.481Z,12.60
2018-04-19T10:03:53.243Z,11.80
2018-04-19T10:06:18.969Z,12.40
2018-04-19T10:08:44.720Z,11.83
2018-04-19T10:11:10.470Z,11.33
2018-04-19T10:13:36.207Z,11.50
2018-04-19T10:16:02.028Z,11.97
2018-04-19T10:18:27.707Z,13.30
2018-04-19T10:20:53.472Z,12.13
2018-04-19T10:23:19.218Z,12.10
2018-04-19T10:25:44.973Z,12.80
2018-04-19T10:28:10.710Z,12.50
2018-04-19T10:30:36.449Z,13.40
2018-04-19T10:33:02.218Z,12.50
2018-04-19T10:35:27.972Z,13.87
2018-04-19T10:37:53.712Z,14.53
2018-04-19T10:40:19.461Z,13.97
2018-04-19T10:42:45.203Z,12.33
2018-04-19T10:45:10.955Z,12.40
2018-04-19T10:47:36.700Z,12.93
2018-04-19T10:50:02.452Z,12.67
2018-04-19T10:52:28.193Z,13.53
2018-04-19T10:54:53.958Z,14.10
2018-04-19T10:57:19.695Z,13.53
2018-04-19T10:59:45.441Z,13.37
2018-04-19T11:02:11.193Z,12.77
2018-04-19T11:04:36.942Z,13.53
2018-04-19T11:07:02.704Z,12.90
2018-04-19T11:09:28.449Z,13.13
2018-04-19T11:11:54.205Z,13.07
2018-04-19T11:14:19.947Z,17.63
2018-04-19T11:16:45.709Z,17.53
2018-04-19T11:19:11.461Z,12.87
2018-04-19T11:21:37.205Z,12.20
2018-04-19T11:24:02.940Z,12.13
2018-04-19T11:26:28.681Z,12.37
2018-04-19T11:28:54.432Z,12.47
2018-04-19T11:31:20.193Z,12.60
2018-04-19T11:33:45.929Z,12.23
2018-04-19T11:36:11.682Z,16.37
2018-04-19T11:38:37.411Z,13.10
2018-04-19T11:41:03.163Z,12.63
2018-04-19T11:43:28.922Z,13.07
2018-04-19T11:45:54.661Z,12.80
2018-04-19T11:48:20.412Z,13.27
2018-04-19T11:50:46.148Z,13.30
2018-04-19T11:53:11.908Z,13.60
2018-04-19T11:55:37.656Z,13.20
2018-04-19T11:58:03.393Z,12.33
2018-04-19T12:00:29.139Z,10.60
2018-04-19T12:02:54.892Z,11.03
2018-04-19T12:05:20.644Z,11.53
2018-04-19T12:07:46.396Z,12.00
2018-04-19T12:10:12.145Z,10.87
2018-04-19T12:12:37.892Z,11.90
2018-04-19T12:15:03.638Z,11.07
2018-04-19T12:17:29.393Z,10.17
2018-04-19T12:19:55.148Z,12.07
2018-04-19T12:22:20.887Z,11.67
2018-04-19T12:24:46.649Z,11.07
2018-04-19T12:27:12.400Z,10.10
2018-04-19T12:29:38.165Z,11.63
2018-04-19T12:32:03.917Z,11.20
2018-04-19T12:34:29.662Z,12.47
2018-04-19T12:36:55.415Z,11.67
2018-04-19T12:39:21.148Z,11.57
2018-04-19T12:41:46.896Z,10.53
2018-04-19T12:44:12.660Z,12.33
2018-04-19T12:46:38.418Z,11.03
2018-04-19T12:49:04.169Z,11.53
2018-04-19T12:51:29.928Z,11.07
2018-04-19T12:53:55.677Z,12.17
2018-04-19T12:56:21.407Z,12.03
2018-04-19T12:58:47.165Z,11.07
2018-04-19T13:01:12.916Z,10.50
2018-04-19T13:03:38.664Z,10.30
2018-04-19T13:06:04.451Z,9.90
2018-04-19T13:08:30.204Z,9.30
2018-04-19T13:10:55.948Z,9.17
2018-04-19T13:13:21.688Z,10.57
2018-04-19T13:15:47.438Z,10.87
2018-04-19T13:18:13.201Z,10.53
2018-04-19T13:20:38.944Z,9.97
2018-04-19T13:23:04.702Z,11.77
2018-04-19T13:25:30.477Z,9.67
2018-04-19T13:27:56.237Z,9.33
2018-04-19T13:30:21.990Z,9.73
2018-04-19T13:32:47.741Z,9.70
2018-04-19T13:35:13.500Z,10.00
2018-04-19T13:37:39.247Z,9.70
2018-04-19T13:40:05.008Z,9.63
2018-04-19T13:42:30.759Z,9.53
2018-04-19T13:44:56.523Z,10.13
2018-04-19T13:47:22.270Z,9.60
2018-04-19T13:49:48.038Z,10.40
2018-04-19T13:52:13.783Z,9.93
2018-04-19T13:54:39.551Z,10.50
2018-04-19T13:57:05.298Z,9.60
2018-04-19T13:59:31.048Z,9.20
2018-04-19T14:01:56.807Z,9.10
2018-04-19T14:04:22.540Z,9.53
2018-04-19T14:06:48.279Z,8.97
2018-04-19T14:09:14.033Z,8.53
2018-04-19T14:11:39.780Z,9.77
2018-04-19T14:14:05.525Z,9.67
2018-04-19T14:16:31.265Z,9.80
2018-04-19T14:18:57.028Z,9.27
2018-04-19T14:21:22.782Z,9.27
2018-04-19T14:23:48.525Z,8.47
2018-04-19T14:26:14.291Z,9.23
2018-04-19T14:28:40.038Z,9.37
2018-04-19T14:31:05.793Z,7.70
2018-04-19T14:33:31.544Z,8.70
2018-04-19T14:35:57.295Z,9.57
2018-04-19T14:38:23.063Z,9.23
2018-04-19T14:40:48.808Z,8.40
2018-04-19T14:43:14.557Z,7.97
2018-04-19T14:45:40.347Z,7.70
2018-04-19T14:48:06.093Z,8.23
2018-04-19T14:50:31.868Z,8.10
2018-04-19T14:52:57.604Z,8.13
2018-04-19T14:55:23.367Z,8.40
2018-04-19T14:57:49.894Z,8.83
2018-04-19T15:00:17.729Z,7.97
2018-04-19T15:02:43.630Z,8.50
2018-04-19T15:05:09.374Z,8.17
2018-04-19T15:07:35.131Z,8.33
2018-04-19T15:10:00.895Z,7.20
2018-04-19T15:12:26.645Z,7.83
2018-04-19T15:14:52.392Z,7.63
2018-04-19T15:17:18.137Z,8.60
2018-04-19T15:19:43.890Z,7.37
2018-04-19T15:22:09.632Z,7.47
2018-04-19T15:24:35.386Z,7.13
2018-04-19T15:27:01.133Z,7.33
2018-04-19T15:29:26.882Z,7.47
2018-04-19T15:31:52.659Z,7.00
2018-04-19T15:34:18.392Z,7.87
2018-04-19T15:36:44.185Z,6.13
2018-04-19T15:39:09.920Z,6.47
2018-04-19T15:41:35.704Z,7.07
2018-04-19T15:44:01.452Z,7.03
2018-04-19T15:46:27.196Z,7.17
2018-04-19T15:48:52.936Z,7.33
2018-04-19T15:51:18.688Z,7.07
2018-04-19T15:53:44.429Z,6.43
2018-04-19T15:56:10.172Z,6.40
2018-04-19T15:58:35.914Z,6.93
2018-04-19T16:01:01.664Z,6.73
2018-04-19T16:03:27.407Z,7.93
2018-04-19T16:05:53.180Z,7.67
2018-04-19T16:08:18.933Z,7.97
2018-04-19T16:10:44.690Z,7.73
2018-04-19T16:13:10.431Z,8.60
2018-04-19T16:15:36.177Z,8.43
2018-04-19T16:18:01.928Z,8.40
2018-04-19T16:20:27.685Z,7.47
2018-04-19T16:22:53.414Z,7.27
2018-04-19T16:25:19.165Z,7.70
2018-04-19T16:27:44.905Z,10.90
2018-04-19T16:30:10.653Z,9.07
2018-04-19T16:32:36.404Z,9.43
2018-04-19T16:35:02.213Z,10.27
2018-04-19T16:37:28.023Z,10.03
2018-04-19T16:39:53.716Z,9.87
2018-04-19T16:42:19.472Z,9.43
2018-04-19T16:44:45.265Z,9.87
2018-04-19T16:47:10.971Z,10.47
2018-04-19T16:49:37.141Z,10.50
2018-04-19T16:52:02.904Z,11.47
2018-04-19T16:54:28.642Z,11.53
2018-04-19T16:56:54.409Z,12.40
2018-04-19T16:59:20.148Z,16.23
2018-04-19T17:01:45.921Z,11.37
2018-04-19T17:04:11.654Z,11.30
2018-04-19T17:06:37.431Z,10.43
2018-04-19T17:09:03.185Z,10.73
2018-04-19T17:11:28.932Z,10.67
2018-04-19T17:13:54.828Z,10.33
2018-04-19T17:16:20.598Z,10.33
2018-04-19T17:18:46.327Z,10.57
2018-04-19T17:21:12.072Z,10.07
2018-04-19T17:23:37.820Z,10.97
2018-04-19T17:26:03.587Z,10.23
2018-04-19T17:28:29.323Z,11.27
2018-04-19T17:30:55.081Z,13.10
2018-04-19T17:33:20.825Z,13.23
2018-04-19T17:35:46.574Z,14.87
2018-04-19T17:38:12.313Z,12.80
2018-04-19T17:40:38.059Z,12.77
2018-04-19T17:43:03.811Z,14.23
2018-04-19T17:45:29.561Z,13.60
2018-04-19T17:47:55.302Z,13.33
2018-04-19T17:50:21.049Z,13.73
2018-04-19T17:52:46.859Z,13.40
2018-04-19T17:55:12.586Z,13.10
2018-04-19T17:57:38.339Z,12.60
2018-04-19T18:00:04.082Z,13.73
2018-04-19T18:02:29.836Z,14.20
2018-04-19T18:04:55.573Z,13.47
2018-04-19T18:07:21.329Z,14.17
2018-04-19T18:09:47.065Z,13.73
2018-04-19T18:12:12.830Z,13.13
2018-04-19T18:14:38.593Z,13.60
2018-04-19T18:17:04.354Z,12.90
2018-04-19T18:19:30.100Z,12.70
2018-04-19T18:21:55.849Z,12.13
2018-04-19T18:24:21.582Z,11.83
2018-04-19T18:26:47.341Z,11.57
2018-04-19T18:29:13.082Z,10.60
2018-04-19T18:31:38.844Z,10.80
2018-04-19T18:34:04.572Z,10.70
2018-04-19T18:36:30.325Z,10.47
2018-04-19T18:38:56.076Z,10.40
2018-04-19T18:41:21.820Z,10.23
2018-04-19T18:43:48.463Z,9.90
2018-04-19T18:46:14.276Z,10.77
2018-04-19T18:48:40.033Z,10.57
2018-04-19T18:51:05.797Z,10.43
2018-04-19T18:53:31.548Z,9.97
2018-04-19T18:55:57.277Z,10.10
2018-04-19T18:58:23.057Z,9.87
2018-04-19T19:00:48.785Z,9.93
2018-04-19T19:03:14.528Z,9.83
2018-04-19T19:05:40.270Z,9.17
2018-04-19T19:08:06.025Z,10.43
2018-04-19T19:10:31.772Z,10.13
2018-04-19T19:12:57.521Z,10.37
2018-04-19T19:18:46.652Z,10.40
2018-04-19T19:21:12.396Z,10.10
2018-04-19T19:23:38.157Z,10.30
2018-04-19T19:26:03.905Z,10.27
2018-04-19T19:28:29.648Z,10.47
2018-04-19T19:30:55.371Z,11.33
2018-04-19T19:33:21.124Z,11.17
2018-04-19T19:35:46.869Z,11.00
2018-04-19T19:38:12.602Z,11.67
2018-04-19T19:40:38.345Z,11.17
2018-04-19T19:43:04.092Z,11.07
2018-04-19T19:45:29.894Z,11.20
2018-04-19T19:47:55.601Z,10.80
2018-04-19T19:50:21.349Z,10.90
2018-04-19T19:52:47.117Z,10.13
2018-04-19T19:55:12.861Z,10.63
2018-04-19T19:57:38.637Z,10.20
2018-04-19T20:00:04.391Z,9.93
2018-04-19T20:02:30.250Z,10.37
2018-04-19T20:04:56.117Z,10.30
2018-04-19T20:07:21.869Z,10.27
2018-04-19T20:09:47.610Z,10.17
2018-04-19T20:12:13.369Z,9.97
2018-04-19T20:14:39.166Z,10.00
2018-04-19T20:17:05.109Z,9.57
2018-04-19T20:19:30.913Z,9.23
2018-04-19T20:21:56.623Z,8.87
2018-04-19T20:24:22.396Z,9.20
2018-04-19T20:26:48.129Z,8.83
2018-04-19T20:29:13.875Z,10.30
2018-04-19T20:31:39.615Z,9.07
2018-04-19T20:34:05.361Z,9.20
2018-04-19T20:36:31.091Z,9.30
2018-04-19T20:38:57.853Z,8.87
2018-04-19T20:41:24.458Z,9.50
2018-04-19T20:43:50.229Z,9.20
2018-04-19T20:46:15.984Z,8.37
2018-04-19T20:48:41.730Z,7.80
2018-04-19T20:51:07.642Z,8.23
2018-04-19T20:53:33.552Z,8.50
2018-04-19T20:55:59.291Z,9.53
2018-04-19T20:58:25.417Z,9.03
2018-04-19T21:00:51.205Z,8.80
2018-04-19T21:03:24.023Z,8.30
2018-04-19T21:05:49.992Z,8.43
2018-04-19T21:08:15.760Z,8.27
2018-04-19T21:10:41.613Z,8.97
2018-04-19T21:13:07.414Z,8.57
2018-04-19T21:15:33.144Z,8.43
2018-04-19T21:17:58.900Z,8.50
2018-04-19T21:20:24.849Z,8.83
2018-04-19T21:22:50.680Z,9.40
2018-04-19T21:25:16.412Z,8.53
2018-04-19T21:27:42.173Z,9.30
2018-04-19T21:30:07.932Z,9.83
2018-04-19T21:32:33.675Z,9.20
2018-04-19T21:34:59.419Z,9.73
2018-04-19T21:37:25.152Z,10.00
2018-04-19T21:39:50.891Z,9.57
2018-04-19T21:42:16.623Z,10.50
2018-04-19T21:44:42.367Z,9.63
2018-04-19T21:47:08.087Z,10.23
2018-04-19T21:49:33.845Z,10.23
2018-04-19T21:51:59.602Z,9.77
2018-04-19T21:54:25.354Z,9.57
2018-04-19T21:56:51.096Z,9.63
2018-04-19T21:59:16.842Z,9.73
2018-04-19T22:01:42.650Z,10.40
2018-04-19T22:04:08.356Z,10.63
2018-04-19T22:06:34.096Z,9.03
2018-04-19T22:08:59.846Z,10.13
2018-04-19T22:11:25.597Z,10.60
2018-04-19T22:13:51.332Z,9.13
2018-04-19T22:16:17.072Z,10.80
2018-04-19T22:18:42.816Z,9.53
2018-04-19T22:21:08.545Z,10.07
2018-04-19T22:23:34.300Z,9.77
2018-04-19T22:26:00.048Z,10.13
2018-04-19T22:28:25.804Z,10.37
2018-04-19T22:30:51.561Z,10.60
2018-04-19T22:33:17.318Z,11.03
2018-04-19T22:35:43.053Z,11.00
2018-04-19T22:38:08.798Z,10.20
2018-04-19T22:40:34.540Z,10.77
2018-04-19T22:43:00.668Z,10.87
2018-04-19T22:45:26.823Z,10.33
2018-04-19T22:47:52.933Z,10.57
2018-04-19T22:50:19.058Z,10.77
2018-04-19T22:52:45.185Z,9.57
2018-04-19T22:55:10.984Z,10.20
2018-04-19T22:57:36.736Z,10.37
2018-04-19T23:00:02.492Z,9.87
2018-04-19T23:02:28.229Z,10.43
2018-04-19T23:04:53.968Z,11.10
2018-04-19T23:07:19.688Z,11.00
2018-04-19T23:09:45.433Z,11.30
2018-04-19T23:12:11.177Z,11.87
2018-04-19T23:14:36.913Z,11.97
2018-04-19T23:17:02.661Z,10.60
2018-04-19T23:19:28.400Z,10.03
2018-04-19T23:21:54.128Z,11.57
2018-04-19T23:24:19.872Z,10.97
2018-04-19T23:26:45.599Z,10.97
2018-04-19T23:29:11.348Z,12.33
2018-04-19T23:31:37.092Z,11.33
2018-04-19T23:34:02.842Z,12.17
2018-04-19T23:36:28.567Z,11.60
2018-04-19T23:38:54.323Z,11.60
2018-04-19T23:41:20.057Z,12.77
2018-04-19T23:43:45.797Z,12.30
2018-04-19T23:46:11.559Z,12.50
2018-04-19T23:48:37.292Z,12.93
2018-04-19T23:51:03.048Z,12.67
2018-04-19T23:53:28.798Z,12.37
2018-04-19T23:55:54.552Z,13.60
2018-04-19T23:58:20.288Z,12.73
